sensor_id;sensor_type;location;lat;lon;timestamp;P1;durP1;ratioP1;P2;durP2;ratioP2
12369;SDS011;6249;52.128;9.986;2023-06-24T00:01:41;15.13;;;8.60;;
12369;SDS011;6249;52.128;9.986;2023-06-24T00:11:42;15.83;;;7.97;;
12369;SDS011;6249;52.128;9.986;2023-06-24T00:21:42;13.43;;;8.45;;
12369;SDS011;6249;52.128;9.986;2023-06-24T00:31:43;12.77;;;8.30;;
12369;SDS011;6249;52.128;9.986;2023-06-24T00:41:46;18.83;;;8.77;;
12369;SDS011;6249;52.128;9.986;2023-06-24T00:51:46;16.25;;;9.30;;
12369;SDS011;6249;52.128;9.986;2023-06-24T01:01:52;16.97;;;10.40;;
12369;SDS011;6249;52.128;9.986;2023-06-24T01:11:54;17.80;;;11.10;;
12369;SDS011;6249;52.128;9.986;2023-06-24T01:22:06;14.70;;;10.10;;
12369;SDS011;6249;52.128;9.986;2023-06-24T01:32:31;18.30;;;11.50;;
12369;SDS011;6249;52.128;9.986;2023-06-24T01:42:43;22.73;;;13.20;;
12369;SDS011;6249;52.128;9.986;2023-06-24T01:52:45;18.53;;;11.73;;
12369;SDS011;6249;52.128;9.986;2023-06-24T02:02:47;17.30;;;11.40;;
12369;SDS011;6249;52.128;9.986;2023-06-24T02:12:50;20.80;;;10.03;;
12369;SDS011;6249;52.128;9.986;2023-06-24T02:22:53;19.27;;;9.70;;
12369;SDS011;6249;52.128;9.986;2023-06-24T02:32:55;14.77;;;9.47;;
12369;SDS011;6249;52.128;9.986;2023-06-24T02:42:57;20.43;;;10.50;;
12369;SDS011;6249;52.128;9.986;2023-06-24T02:52:58;18.40;;;10.83;;
12369;SDS011;6249;52.128;9.986;2023-06-24T03:03:03;15.00;;;9.63;;
12369;SDS011;6249;52.128;9.986;2023-06-24T03:13:05;18.63;;;11.00;;
12369;SDS011;6249;52.128;9.986;2023-06-24T03:23:06;15.63;;;10.30;;
12369;SDS011;6249;52.128;9.986;2023-06-24T03:33:07;24.13;;;10.53;;
12369;SDS011;6249;52.128;9.986;2023-06-24T03:43:07;16.58;;;10.52;;
12369;SDS011;6249;52.128;9.986;2023-06-24T03:53:08;16.90;;;9.48;;
12369;SDS011;6249;52.128;9.986;2023-06-24T04:03:08;19.07;;;11.60;;
12369;SDS011;6249;52.128;9.986;2023-06-24T04:13:10;16.90;;;10.40;;
12369;SDS011;6249;52.128;9.986;2023-06-24T04:23:10;23.20;;;11.67;;
12369;SDS011;6249;52.128;9.986;2023-06-24T04:33:11;19.23;;;11.53;;
12369;SDS011;6249;52.128;9.986;2023-06-24T04:43:16;19.90;;;10.10;;
12369;SDS011;6249;52.128;9.986;2023-06-24T04:53:16;17.43;;;11.07;;
12369;SDS011;6249;52.128;9.986;2023-06-24T05:03:19;19.50;;;10.90;;
12369;SDS011;6249;52.128;9.986;2023-06-24T05:13:20;17.67;;;9.70;;
12369;SDS011;6249;52.128;9.986;2023-06-24T05:23:20;20.15;;;11.40;;
12369;SDS011;6249;52.128;9.986;2023-06-24T05:33:21;18.37;;;10.40;;
12369;SDS011;6249;52.128;9.986;2023-06-24T05:43:22;25.13;;;10.17;;
12369;SDS011;6249;52.128;9.986;2023-06-24T05:53:25;15.10;;;8.50;;
12369;SDS011;6249;52.128;9.986;2023-06-24T06:03:28;12.37;;;7.80;;
12369;SDS011;6249;52.128;9.986;2023-06-24T06:13:29;13.67;;;6.97;;
12369;SDS011;6249;52.128;9.986;2023-06-24T06:23:30;12.23;;;6.80;;
12369;SDS011;6249;52.128;9.986;2023-06-24T06:33:30;9.07;;;6.90;;
12369;SDS011;6249;52.128;9.986;2023-06-24T06:43:32;12.07;;;6.75;;
12369;SDS011;6249;52.128;9.986;2023-06-24T06:53:38;15.10;;;6.87;;
12369;SDS011;6249;52.128;9.986;2023-06-24T07:03:39;10.23;;;6.10;;
12369;SDS011;6249;52.128;9.986;2023-06-24T07:13:42;10.87;;;5.40;;
12369;SDS011;6249;52.128;9.986;2023-06-24T07:23:46;9.50;;;5.03;;
12369;SDS011;6249;52.128;9.986;2023-06-24T07:33:46;8.20;;;4.70;;
12369;SDS011;6249;52.128;9.986;2023-06-24T07:43:47;8.95;;;4.65;;
12369;SDS011;6249;52.128;9.986;2023-06-24T07:53:47;6.30;;;3.90;;
12369;SDS011;6249;52.128;9.986;2023-06-24T08:03:50;5.73;;;3.77;;
12369;SDS011;6249;52.128;9.986;2023-06-24T08:13:53;11.27;;;3.70;;
12369;SDS011;6249;52.128;9.986;2023-06-24T08:23:54;6.47;;;3.63;;
12369;SDS011;6249;52.128;9.986;2023-06-24T08:33:55;7.40;;;3.47;;
12369;SDS011;6249;52.128;9.986;2023-06-24T08:43:59;7.20;;;3.13;;
12369;SDS011;6249;52.128;9.986;2023-06-24T08:54:00;7.90;;;3.73;;
12369;SDS011;6249;52.128;9.986;2023-06-24T09:04:05;7.13;;;3.47;;
12369;SDS011;6249;52.128;9.986;2023-06-24T09:14:05;9.77;;;3.50;;
12369;SDS011;6249;52.128;9.986;2023-06-24T09:24:11;6.80;;;3.80;;
12369;SDS011;6249;52.128;9.986;2023-06-24T09:34:15;7.03;;;4.10;;
12369;SDS011;6249;52.128;9.986;2023-06-24T09:44:19;5.17;;;3.20;;
12369;SDS011;6249;52.128;9.986;2023-06-24T09:54:19;6.73;;;3.37;;
12369;SDS011;6249;52.128;9.986;2023-06-24T10:04:24;6.03;;;2.93;;
12369;SDS011;6249;52.128;9.986;2023-06-24T10:14:30;5.30;;;3.07;;
12369;SDS011;6249;52.128;9.986;2023-06-24T10:44:47;5.77;;;3.63;;
12369;SDS011;6249;52.128;9.986;2023-06-24T10:54:51;11.13;;;3.80;;
12369;SDS011;6249;52.128;9.986;2023-06-24T11:04:53;8.03;;;3.87;;
12369;SDS011;6249;52.128;9.986;2023-06-24T11:15:03;6.10;;;3.43;;
12369;SDS011;6249;52.128;9.986;2023-06-24T11:25:05;7.03;;;3.73;;
12369;SDS011;6249;52.128;9.986;2023-06-24T11:35:07;5.20;;;3.10;;
12369;SDS011;6249;52.128;9.986;2023-06-24T11:45:12;10.00;;;4.23;;
12369;SDS011;6249;52.128;9.986;2023-06-24T11:55:17;6.77;;;4.40;;
12369;SDS011;6249;52.128;9.986;2023-06-24T12:05:19;5.50;;;3.77;;
12369;SDS011;6249;52.128;9.986;2023-06-24T12:15:26;7.90;;;3.93;;
12369;SDS011;6249;52.128;9.986;2023-06-24T12:25:27;8.70;;;4.67;;
12369;SDS011;6249;52.128;9.986;2023-06-24T12:35:28;8.83;;;4.03;;
12369;SDS011;6249;52.128;9.986;2023-06-24T12:45:28;7.67;;;4.70;;
12369;SDS011;6249;52.128;9.986;2023-06-24T12:55:29;6.13;;;4.20;;
12369;SDS011;6249;52.128;9.986;2023-06-24T13:05:30;7.37;;;4.30;;
12369;SDS011;6249;52.128;9.986;2023-06-24T13:15:33;6.57;;;4.10;;
12369;SDS011;6249;52.128;9.986;2023-06-24T13:25:36;6.33;;;3.63;;
12369;SDS011;6249;52.128;9.986;2023-06-24T13:35:37;5.63;;;3.57;;
12369;SDS011;6249;52.128;9.986;2023-06-24T13:45:38;6.77;;;4.13;;
12369;SDS011;6249;52.128;9.986;2023-06-24T13:55:38;6.93;;;4.17;;
12369;SDS011;6249;52.128;9.986;2023-06-24T14:05:41;6.70;;;3.80;;
12369;SDS011;6249;52.128;9.986;2023-06-24T14:15:44;5.80;;;4.10;;
12369;SDS011;6249;52.128;9.986;2023-06-24T14:25:50;6.43;;;3.83;;
12369;SDS011;6249;52.128;9.986;2023-06-24T14:35:53;6.47;;;4.07;;
12369;SDS011;6249;52.128;9.986;2023-06-24T14:45:58;5.93;;;3.73;;
12369;SDS011;6249;52.128;9.986;2023-06-24T14:56:01;9.20;;;4.30;;
12369;SDS011;6249;52.128;9.986;2023-06-24T15:06:05;6.53;;;4.27;;
12369;SDS011;6249;52.128;9.986;2023-06-24T15:16:10;8.10;;;3.90;;
12369;SDS011;6249;52.128;9.986;2023-06-24T15:26:10;6.60;;;4.10;;
12369;SDS011;6249;52.128;9.986;2023-06-24T15:36:14;7.57;;;4.47;;
12369;SDS011;6249;52.128;9.986;2023-06-24T15:46:17;5.90;;;4.00;;
12369;SDS011;6249;52.128;9.986;2023-06-24T15:56:17;7.90;;;4.80;;
12369;SDS011;6249;52.128;9.986;2023-06-24T16:06:18;6.87;;;4.37;;
12369;SDS011;6249;52.128;9.986;2023-06-24T16:16:19;6.27;;;4.30;;
12369;SDS011;6249;52.128;9.986;2023-06-24T16:26:22;8.00;;;4.40;;
12369;SDS011;6249;52.128;9.986;2023-06-24T16:36:22;6.47;;;4.13;;
12369;SDS011;6249;52.128;9.986;2023-06-24T16:46:23;7.07;;;4.20;;
12369;SDS011;6249;52.128;9.986;2023-06-24T16:56:26;6.60;;;4.40;;
12369;SDS011;6249;52.128;9.986;2023-06-24T17:06:32;11.30;;;5.10;;
12369;SDS011;6249;52.128;9.986;2023-06-24T17:16:35;10.43;;;4.77;;
12369;SDS011;6249;52.128;9.986;2023-06-24T17:26:36;9.10;;;5.30;;
12369;SDS011;6249;52.128;9.986;2023-06-24T17:36:36;6.73;;;4.43;;
12369;SDS011;6249;52.128;9.986;2023-06-24T17:46:40;8.93;;;4.67;;
12369;SDS011;6249;52.128;9.986;2023-06-24T17:56:46;7.47;;;4.50;;
12369;SDS011;6249;52.128;9.986;2023-06-24T18:06:49;14.70;;;5.00;;
12369;SDS011;6249;52.128;9.986;2023-06-24T18:16:51;9.70;;;4.03;;
12369;SDS011;6249;52.128;9.986;2023-06-24T18:26:52;8.20;;;4.53;;
12369;SDS011;6249;52.128;9.986;2023-06-24T18:36:53;11.93;;;4.97;;
12369;SDS011;6249;52.128;9.986;2023-06-24T18:46:53;8.15;;;4.63;;
12369;SDS011;6249;52.128;9.986;2023-06-24T18:56:56;9.33;;;6.40;;
12369;SDS011;6249;52.128;9.986;2023-06-24T19:06:56;7.97;;;5.20;;
12369;SDS011;6249;52.128;9.986;2023-06-24T19:16:59;13.73;;;6.10;;
12369;SDS011;6249;52.128;9.986;2023-06-24T19:27:00;14.33;;;7.57;;
12369;SDS011;6249;52.128;9.986;2023-06-24T19:37:03;7.77;;;5.63;;
12369;SDS011;6249;52.128;9.986;2023-06-24T19:47:04;11.43;;;6.10;;
12369;SDS011;6249;52.128;9.986;2023-06-24T19:57:07;11.07;;;5.50;;
12369;SDS011;6249;52.128;9.986;2023-06-24T20:07:07;9.03;;;6.07;;
12369;SDS011;6249;52.128;9.986;2023-06-24T20:17:08;11.35;;;7.55;;
12369;SDS011;6249;52.128;9.986;2023-06-24T20:27:12;9.87;;;6.80;;
12369;SDS011;6249;52.128;9.986;2023-06-24T20:37:13;10.43;;;6.38;;
12369;SDS011;6249;52.128;9.986;2023-06-24T20:47:13;10.63;;;5.70;;
12369;SDS011;6249;52.128;9.986;2023-06-24T20:57:16;12.60;;;7.43;;
12369;SDS011;6249;52.128;9.986;2023-06-24T21:07:17;10.50;;;6.73;;
12369;SDS011;6249;52.128;9.986;2023-06-24T21:17:18;10.30;;;5.80;;
12369;SDS011;6249;52.128;9.986;2023-06-24T21:27:18;10.53;;;6.23;;
12369;SDS011;6249;52.128;9.986;2023-06-24T21:37:19;11.83;;;6.87;;
12369;SDS011;6249;52.128;9.986;2023-06-24T21:47:19;9.27;;;6.03;;
12369;SDS011;6249;52.128;9.986;2023-06-24T21:57:22;9.90;;;6.87;;
12369;SDS011;6249;52.128;9.986;2023-06-24T22:07:23;9.65;;;6.95;;
12369;SDS011;6249;52.128;9.986;2023-06-24T22:17:26;18.83;;;6.67;;
12369;SDS011;6249;52.128;9.986;2023-06-24T22:27:29;10.27;;;6.87;;
12369;SDS011;6249;52.128;9.986;2023-06-24T22:37:29;9.90;;;6.47;;
12369;SDS011;6249;52.128;9.986;2023-06-24T22:47:30;9.47;;;7.00;;
12369;SDS011;6249;52.128;9.986;2023-06-24T22:57:31;12.33;;;7.07;;
12369;SDS011;6249;52.128;9.986;2023-06-24T23:07:36;10.83;;;6.70;;
12369;SDS011;6249;52.128;9.986;2023-06-24T23:17:37;13.50;;;6.83;;
12369;SDS011;6249;52.128;9.986;2023-06-24T23:27:38;10.93;;;7.20;;
12369;SDS011;6249;52.128;9.986;2023-06-24T23:37:42;14.10;;;7.60;;
12369;SDS011;6249;52.128;9.986;2023-06-24T23:47:42;12.93;;;7.90;;
12369;SDS011;6249;52.128;9.986;2023-06-24T23:57:43;15.53;;;7.30;;
